Time;durP1;ratioP1;P1;durP2;ratioP2;P2;SDS_P1;SDS_P2;PMS_P1;PMS_P2;Temp;Humidity;BMP_temperature;BMP_pressure;BME280_temperature;BME280_humidity;BME280_pressure;Samples;Min_cycle;Max_cycle;Signal;HPM_P1;HPM_P2
2022/11/14 00:01:27;;;;;;;28.33;21.13;;;3.20;99.90;;;-141.84;86.83;18814.03;5032466;28;20233;-61
2022/11/14 00:03:56;;;;;;;28.77;21.77;;;3.20;99.90;;;-141.84;86.95;18767.31;5031920;28;20228;-60
2022/11/14 00:06:24;;;;;;;29.30;21.37;;;3.20;99.90;;;-141.84;87.07;18763.25;5032109;28;20230;-60
2022/11/14 00:08:52;;;;;;;25.37;19.63;;;3.10;99.90;;;-141.84;87.30;18783.56;5031447;28;20278;-60
2022/11/14 00:11:20;;;;;;;26.40;19.87;;;3.20;99.90;;;-141.84;87.62;18803.88;5031887;28;20202;-60
2022/11/14 00:13:49;;;;;;;23.93;18.57;;;3.10;99.90;;;-141.84;86.51;18830.31;5032164;28;20200;-60
2022/11/14 00:16:17;;;;;;;24.80;18.57;;;3.10;99.90;;;-141.84;85.77;18826.25;5031648;28;20237;-62
2022/11/14 00:18:45;;;;;;;24.70;18.43;;;3.10;99.90;;;-141.84;84.94;18826.25;5031506;28;20230;-60
2022/11/14 00:21:14;;;;;;;26.47;19.77;;;3.00;99.90;;;-141.84;84.58;18820.16;5041610;28;20288;-62
2022/11/14 00:23:42;;;;;;;24.70;18.37;;;3.10;99.90;;;-141.84;84.08;18834.38;5033166;28;20224;-61
2022/11/14 00:26:10;;;;;;;21.00;17.77;;;3.10;99.90;;;-141.84;83.84;18803.88;5031716;28;20203;-61
2022/11/14 00:28:39;;;;;;;21.13;17.70;;;3.00;99.90;;;-141.84;83.29;18822.19;5031952;28;20205;-60
2022/11/14 00:31:07;;;;;;;23.67;16.47;;;3.00;99.90;;;-141.84;83.75;18803.88;5031578;28;20228;-60
2022/11/14 00:33:35;;;;;;;21.03;17.20;;;2.90;99.90;;;-141.84;84.41;18795.75;5031139;28;20237;-61
2022/11/14 00:36:04;;;;;;;21.20;17.13;;;2.80;99.90;;;-141.84;84.99;18799.81;5031365;28;20695;-62
2022/11/14 00:38:33;;;;;;;20.57;16.47;;;2.70;99.90;;;-141.84;84.97;18785.59;5032738;28;20228;-61
2022/11/14 00:41:01;;;;;;;23.67;17.67;;;2.70;99.90;;;-141.84;85.52;18807.94;5031498;28;20211;-63
2022/11/14 00:43:30;;;;;;;23.90;17.77;;;2.70;99.90;;;-141.84;85.70;18761.22;5031358;28;20200;-60
2022/11/14 00:45:58;;;;;;;28.80;20.47;;;2.80;99.90;;;-141.84;86.31;18809.97;5031329;28;20233;-61
2022/11/14 00:48:26;;;;;;;44.00;27.53;;;2.90;99.90;;;-141.84;87.80;18828.28;5030957;28;20721;-61
2022/11/14 00:50:55;;;;;;;47.10;29.07;;;3.20;99.90;;;-141.84;88.72;18858.75;5030986;28;20772;-61
2022/11/14 00:53:23;;;;;;;50.83;30.43;;;3.30;99.90;;;-141.84;89.48;18783.56;5030956;28;20225;-61
2022/11/14 00:55:52;;;;;;;52.77;31.47;;;3.60;99.90;;;-141.84;90.08;18828.28;5031558;28;20204;-61
2022/11/14 00:58:20;;;;;;;52.63;32.43;;;3.80;99.90;;;-141.84;90.65;18850.63;5030546;28;20233;-61
2022/11/14 01:00:48;;;;;;;49.83;31.43;;;4.00;99.90;;;-141.84;91.02;18854.69;5031104;28;20232;-61
2022/11/14 01:03:17;;;;;;;46.77;30.23;;;4.20;99.90;;;-141.84;91.19;18807.94;5030718;28;20230;-62
2022/11/14 01:05:49;;;;;;;47.93;31.13;;;4.20;99.90;;;-141.84;91.76;18816.06;5030710;28;20781;-61
2022/11/14 01:08:19;;;;;;;49.83;30.17;;;4.20;99.90;;;-141.84;92.07;18830.31;5030778;28;20203;-60
2022/11/14 01:10:50;;;;;;;45.20;30.60;;;4.30;99.90;;;-141.84;92.39;18828.28;5030977;28;20565;-62
2022/11/14 01:13:20;;;;;;;48.50;30.80;;;4.30;99.90;;;-141.84;92.44;18803.88;5030579;28;20275;-62
2022/11/14 01:15:51;;;;;;;47.67;29.20;;;4.20;99.90;;;-141.84;92.78;18789.66;5030689;28;20736;-62
2022/11/14 01:18:21;;;;;;;51.30;31.23;;;4.30;99.90;;;-141.84;93.10;18805.91;5025932;28;20248;-61
2022/11/14 01:20:50;;;;;;;48.20;29.20;;;4.30;99.90;;;-141.84;93.17;18791.69;5011183;28;20279;-61
2022/11/14 01:23:18;;;;;;;48.10;30.20;;;4.30;99.90;;;-141.84;93.35;18822.19;5011054;28;20272;-61
2022/11/14 01:25:46;;;;;;;44.07;28.63;;;4.30;99.90;;;-141.84;93.30;18803.88;5011336;28;20214;-61
2022/11/14 01:28:19;;;;;;;45.47;29.90;;;4.40;99.90;;;-141.84;93.38;18791.69;5010952;28;20252;-61
2022/11/14 01:30:48;;;;;;;48.70;29.87;;;4.40;99.90;;;-141.84;93.30;18801.84;5011020;28;20593;-61
2022/11/14 01:33:16;;;;;;;47.87;29.57;;;4.50;99.90;;;-141.84;93.40;18789.66;5010930;28;20238;-61
2022/11/14 01:35:44;;;;;;;43.93;28.33;;;4.40;99.90;;;-141.84;93.13;18822.19;5011032;28;20236;-61
2022/11/14 01:38:14;;;;;;;46.20;29.77;;;4.50;99.90;;;-141.84;93.15;18771.38;5013713;28;20286;-61
2022/11/14 01:40:45;;;;;;;44.27;28.40;;;4.50;99.90;;;-141.84;92.78;18832.34;5030879;28;20205;-61
2022/11/14 01:43:31;;;;;;;41.17;26.90;;;4.50;99.90;;;-141.84;92.82;18785.59;5030588;28;20755;-61
2022/11/14 01:46:04;;;;;;;42.07;27.43;;;4.40;99.90;;;-141.84;92.93;18805.91;5032853;28;20232;-61
2022/11/14 01:48:41;;;;;;;45.80;29.00;;;4.40;99.90;;;-141.84;92.52;18785.59;5034614;28;20264;-60
2022/11/14 01:51:23;;;;;;;42.40;27.43;;;4.40;99.90;;;-141.84;92.77;18814.03;5034481;28;20236;-60
2022/11/14 01:53:55;;;;;;;44.37;27.77;;;4.40;99.90;;;-141.84;92.64;18801.84;5034134;28;20591;-60
2022/11/14 01:56:31;;;;;;;41.30;27.87;;;4.40;99.90;;;-141.84;92.70;18816.06;5034453;28;20688;-60
2022/11/14 01:59:07;;;;;;;40.37;26.10;;;4.30;99.90;;;-141.84;92.96;18791.69;5034524;28;20184;-61
2022/11/14 02:01:41;;;;;;;43.60;28.17;;;4.30;99.90;;;-141.84;92.69;18789.66;5054653;28;20207;-59
2022/11/14 02:04:10;;;;;;;37.67;25.10;;;4.30;99.90;;;-141.84;92.65;18757.16;5054045;28;20282;-60
2022/11/14 02:06:42;;;;;;;41.37;27.50;;;4.30;99.90;;;-141.84;92.40;18820.16;5054219;28;20232;-60
2022/11/14 02:09:10;;;;;;;39.80;26.30;;;4.30;99.90;;;-141.84;92.08;18791.69;5054045;28;20286;-61
2022/11/14 02:11:44;;;;;;;43.33;26.07;;;4.30;99.90;;;-141.84;92.40;18809.97;5053977;28;20220;-61
2022/11/14 02:14:14;;;;;;;41.00;26.63;;;4.30;99.90;;;-141.84;92.23;18771.38;5053960;28;20193;-61
2022/11/14 02:16:43;;;;;;;37.73;26.03;;;4.20;99.90;;;-141.84;92.12;18787.63;5054764;28;20420;-61
2022/11/14 02:19:43;;;;;;;33.67;23.53;;;4.20;99.90;;;-141.84;92.02;18809.97;5054075;28;20273;-62
2022/11/14 02:22:13;;;;;;;35.57;24.03;;;4.20;99.90;;;-141.84;92.13;18777.47;5053691;28;20298;-61
2022/11/14 02:24:41;;;;;;;36.93;25.03;;;4.10;99.90;;;-141.84;92.25;18812.00;5053709;28;20229;-60
2022/11/14 02:27:12;;;;;;;36.93;24.60;;;4.10;99.90;;;-141.84;92.16;18803.88;5054075;28;20231;-61
2022/11/14 02:29:41;;;;;;;38.13;24.90;;;4.10;99.90;;;-141.84;91.92;18793.72;5053807;28;20227;-60
2022/11/14 02:32:09;;;;;;;36.27;24.80;;;4.10;99.90;;;-141.84;91.55;18797.78;5053864;28;20208;-60
2022/11/14 02:34:38;;;;;;;35.67;24.33;;;4.10;99.90;;;-141.84;91.37;18771.38;5054123;28;20199;-61
2022/11/14 02:37:07;;;;;;;36.30;24.27;;;4.10;99.90;;;-141.84;91.30;18842.50;5053389;28;20224;-61
2022/11/14 02:39:37;;;;;;;32.37;23.03;;;4.00;99.90;;;-141.84;91.19;18793.72;5038802;28;20247;-62
2022/11/14 02:42:06;;;;;;;36.20;24.17;;;4.00;99.90;;;-141.84;91.12;18775.44;5033515;28;20580;-60
2022/11/14 02:44:34;;;;;;;38.97;24.87;;;4.00;99.90;;;-141.84;90.75;18797.78;5033529;28;20247;-61
2022/11/14 02:47:02;;;;;;;33.67;23.93;;;4.00;99.90;;;-141.84;90.64;18791.69;5033160;28;20240;-61
2022/11/14 02:49:30;;;;;;;32.33;23.23;;;4.00;99.90;;;-141.84;90.79;18763.25;5033850;28;20202;-61
2022/11/14 02:51:59;;;;;;;35.43;23.13;;;3.90;99.90;;;-141.84;90.87;18781.53;5033301;28;20234;-61
2022/11/14 02:54:27;;;;;;;33.17;22.00;;;3.80;99.90;;;-141.84;90.87;18753.09;5033203;28;20233;-61
2022/11/14 02:56:56;;;;;;;33.67;22.80;;;3.80;99.90;;;-141.84;90.92;18789.66;5032857;28;20227;-62
2022/11/14 02:59:24;;;;;;;34.20;22.70;;;3.80;99.90;;;-141.84;90.82;18775.44;5032908;28;20640;-61
2022/11/14 03:01:52;;;;;;;32.17;22.57;;;3.80;99.90;;;-141.84;90.98;18775.44;5033855;28;20219;-60
2022/11/14 03:04:21;;;;;;;32.23;22.83;;;3.80;99.90;;;-141.84;91.30;18759.19;5033175;28;20241;-61
2022/11/14 03:06:49;;;;;;;31.10;21.33;;;3.80;99.90;;;-141.84;91.35;18747.00;5032867;28;20320;-61
2022/11/14 03:09:17;;;;;;;31.47;22.13;;;3.70;99.90;;;-141.84;91.45;18767.31;5044743;28;20319;-61
2022/11/14 03:11:45;;;;;;;33.27;22.67;;;3.70;99.90;;;-141.84;91.33;18777.47;5052616;28;20252;-61
2022/11/14 03:14:15;;;;;;;33.40;24.50;;;3.80;99.90;;;-141.84;91.26;18769.34;5052902;28;20200;-61
2022/11/14 03:16:43;;;;;;;30.43;21.53;;;3.80;99.90;;;-141.84;91.04;18747.00;5053242;28;20233;-61
2022/11/14 03:19:11;;;;;;;30.20;21.27;;;3.80;99.90;;;-141.84;91.41;18757.16;5052644;28;20231;-60
2022/11/14 03:21:39;;;;;;;34.70;24.13;;;3.70;99.90;;;-141.84;91.33;18753.09;5052791;28;20228;-62
2022/11/14 03:24:08;;;;;;;36.03;23.17;;;3.70;99.90;;;-141.84;91.56;18763.25;5052716;28;20229;-63
2022/11/14 03:26:36;;;;;;;35.63;24.03;;;3.80;99.90;;;-141.84;91.21;18757.16;5052725;28;20228;-61
2022/11/14 03:29:05;;;;;;;35.97;23.90;;;3.80;99.90;;;-141.84;90.59;18775.44;5052747;28;20298;-61
2022/11/14 03:31:34;;;;;;;34.00;23.63;;;4.00;99.90;;;-141.84;90.24;18771.38;5053208;28;20635;-60
2022/11/14 03:34:02;;;;;;;34.17;22.77;;;4.00;99.90;;;-141.84;90.42;18769.34;5052576;28;20229;-61
2022/11/14 03:36:30;;;;;;;34.73;22.17;;;3.90;99.90;;;-141.84;90.63;18761.22;5052511;28;20286;-64
2022/11/14 03:38:58;;;;;;;29.83;21.17;;;3.80;99.90;;;-141.84;90.87;18769.34;5042935;28;20708;-60
2022/11/14 03:41:26;;;;;;;32.47;22.20;;;3.80;99.90;;;-141.84;91.14;18785.59;5032593;28;20232;-61
2022/11/14 03:43:55;;;;;;;29.90;20.73;;;3.70;99.90;;;-141.84;91.16;18757.16;5032869;28;20263;-61
2022/11/14 03:46:23;;;;;;;34.77;22.17;;;3.80;99.90;;;-141.84;91.23;18791.69;5032251;28;20284;-61
2022/11/14 03:48:52;;;;;;;33.03;22.17;;;3.80;99.90;;;-141.84;91.28;18785.59;5032509;28;20229;-61
2022/11/14 03:51:21;;;;;;;34.40;22.77;;;3.90;99.90;;;-141.84;90.99;18781.53;5032254;28;20229;-61
2022/11/14 03:53:49;;;;;;;30.67;21.50;;;3.90;99.90;;;-141.84;91.30;18755.13;5031932;28;20222;-62
2022/11/14 03:56:17;;;;;;;34.70;22.83;;;3.90;99.90;;;-141.84;91.23;18761.22;5032321;28;20577;-62
2022/11/14 03:58:45;;;;;;;34.30;21.97;;;3.90;99.90;;;-141.84;91.09;18777.47;5032575;28;20225;-61
2022/11/14 04:01:13;;;;;;;30.73;21.53;;;3.90;99.90;;;-141.84;90.73;18769.34;5031870;28;20713;-61
2022/11/14 04:03:41;;;;;;;32.73;21.83;;;4.00;99.90;;;-141.84;90.44;18775.44;5031975;28;20229;-61
2022/11/14 04:06:11;;;;;;;30.20;20.40;;;4.00;99.90;;;-141.84;90.07;18793.72;5032119;28;20225;-60
2022/11/14 04:08:40;;;;;;;30.50;20.77;;;4.00;99.90;;;-141.84;90.05;18744.97;5048898;28;20225;-62
2022/11/14 04:11:09;;;;;;;30.60;20.60;;;4.00;99.90;;;-141.84;89.69;18781.53;5051592;28;20210;-61
2022/11/14 04:13:37;;;;;;;30.30;20.47;;;4.00;99.90;;;-141.84;89.80;18812.00;5052442;28;20227;-62
2022/11/14 04:16:07;;;;;;;31.37;20.97;;;4.00;99.90;;;-141.84;89.59;18769.34;5051580;28;20226;-60
2022/11/14 04:18:35;;;;;;;29.77;20.73;;;4.00;99.90;;;-141.84;89.95;18761.22;5051663;28;20229;-61
2022/11/14 04:21:04;;;;;;;29.20;21.17;;;3.90;99.90;;;-141.84;90.11;18759.19;5051783;28;20231;-61
2022/11/14 04:23:33;;;;;;;30.47;20.80;;;3.80;99.90;;;-141.84;89.96;18785.59;5051559;28;20277;-61
2022/11/14 04:26:01;;;;;;;28.40;19.83;;;3.90;99.90;;;-141.84;90.07;18765.28;5051400;28;20208;-60
2022/11/14 04:28:30;;;;;;;30.97;21.10;;;3.80;99.90;;;-141.84;90.25;18755.13;5051989;28;20200;-61
2022/11/14 04:30:59;;;;;;;29.20;19.70;;;3.80;99.90;;;-141.84;90.51;18771.38;5051394;28;20637;-60
2022/11/14 04:33:27;;;;;;;29.73;20.23;;;3.80;99.90;;;-141.84;90.51;18734.81;5051692;28;20238;-61
2022/11/14 04:35:55;;;;;;;30.00;20.40;;;3.70;99.90;;;-141.84;90.74;18767.31;5051468;28;20493;-60
2022/11/14 04:38:24;;;;;;;30.63;20.83;;;3.70;99.90;;;-141.84;90.80;18803.88;5046448;28;20239;-60
2022/11/14 04:40:54;;;;;;;29.33;19.57;;;3.70;99.90;;;-141.84;90.86;18751.06;5031939;28;20220;-61
2022/11/14 04:43:22;;;;;;;29.63;20.50;;;3.70;99.90;;;-141.84;91.05;18765.28;5031098;28;20278;-61
2022/11/14 04:45:50;;;;;;;27.67;19.87;;;3.70;99.90;;;-141.84;91.20;18720.59;5031107;28;20244;-60
2022/11/14 04:48:18;;;;;;;29.23;20.43;;;3.60;99.90;;;-141.84;91.50;18777.47;5031022;28;20232;-62
2022/11/14 04:50:46;;;;;;;32.57;22.23;;;3.70;99.90;;;-141.84;91.22;18775.44;5031325;28;20647;-61
2022/11/14 04:53:14;;;;;;;30.97;20.63;;;3.70;99.90;;;-141.84;91.12;18744.97;5031166;28;20208;-62
2022/11/14 04:55:45;;;;;;;31.07;20.87;;;3.70;99.90;;;-141.84;91.04;18744.97;5031601;28;20196;-61
2022/11/14 04:58:14;;;;;;;30.13;20.20;;;3.70;99.90;;;-141.84;90.95;18761.22;5030672;28;20848;-61
2022/11/14 05:00:42;;;;;;;30.93;20.80;;;3.70;99.90;;;-141.84;91.14;18791.69;5031023;28;20241;-61
2022/11/14 05:03:10;;;;;;;33.90;21.60;;;3.70;99.90;;;-141.84;90.66;18744.97;5034017;28;20231;-60
2022/11/14 05:05:38;;;;;;;29.37;20.03;;;3.60;99.90;;;-141.84;90.64;18761.22;5050911;28;20235;-61
2022/11/14 05:08:09;;;;;;;31.00;20.87;;;3.60;99.90;;;-141.84;90.80;18744.97;5051185;28;20199;-62
2022/11/14 05:10:37;;;;;;;26.20;19.67;;;3.60;99.90;;;-141.84;90.67;18759.19;5051094;28;20192;-61
2022/11/14 05:13:05;;;;;;;29.57;20.10;;;3.60;99.90;;;-141.84;90.46;18769.34;5050592;28;20227;-61
2022/11/14 05:15:36;;;;;;;31.53;20.83;;;3.70;99.90;;;-141.84;89.94;18757.16;5050812;28;20228;-60
2022/11/14 05:18:04;;;;;;;30.13;20.07;;;3.60;99.90;;;-141.84;90.17;18726.69;5050531;28;20219;-61
2022/11/14 05:20:32;;;;;;;28.20;19.97;;;3.60;99.90;;;-141.84;90.59;18742.94;5049749;28;20232;-60
2022/11/14 05:23:00;;;;;;;29.47;20.17;;;3.40;99.90;;;-141.84;90.98;18740.91;5051067;28;20206;-61
2022/11/14 05:25:29;;;;;;;29.00;19.93;;;3.40;99.90;;;-141.84;91.03;18757.16;5050709;28;20222;-61
2022/11/14 05:27:57;;;;;;;29.43;20.47;;;3.40;99.90;;;-141.84;91.28;18708.41;5034481;28;20231;-62
2022/11/14 05:30:25;;;;;;;29.43;20.33;;;3.40;99.90;;;-141.84;91.50;18742.94;5030624;28;20808;-61
2022/11/14 05:32:54;;;;;;;30.13;20.47;;;3.40;99.90;;;-141.84;91.63;18744.97;5030548;28;20289;-60
2022/11/14 05:35:22;;;;;;;30.37;19.93;;;3.30;99.90;;;-141.84;91.87;18742.94;5030423;28;20234;-60
2022/11/14 05:37:50;;;;;;;31.53;20.47;;;3.30;99.90;;;-141.84;91.87;18734.81;5031105;28;20619;-60
2022/11/14 05:40:25;;;;;;;29.10;20.00;;;3.30;99.90;;;-141.84;92.02;18742.94;5010584;28;20332;-61
2022/11/14 05:42:55;;;;;;;30.03;20.30;;;3.30;99.90;;;-141.84;92.21;18716.53;5010435;28;20233;-61
2022/11/14 05:45:23;;;;;;;29.33;19.67;;;3.30;99.90;;;-141.84;92.20;18755.13;5022436;28;20949;-60
2022/11/14 05:47:53;;;;;;;32.43;20.83;;;3.30;99.90;;;-141.84;92.21;18716.53;5030346;28;20227;-61
2022/11/14 05:50:21;;;;;;;29.47;20.43;;;3.30;99.90;;;-141.84;92.25;18744.97;5030134;28;20233;-61
2022/11/14 05:52:50;;;;;;;33.70;21.87;;;3.30;99.90;;;-141.84;92.40;18724.66;5030291;28;20200;-61
2022/11/14 05:55:18;;;;;;;30.90;20.90;;;3.40;99.90;;;-141.84;92.34;18722.63;5030180;28;20234;-62
2022/11/14 05:57:51;;;;;;;32.10;21.40;;;3.30;99.90;;;-141.84;92.62;18749.03;5030101;28;20732;-61
2022/11/14 06:00:20;;;;;;;31.90;21.73;;;3.40;99.90;;;-141.84;92.63;18724.66;5029969;28;20391;-61
2022/11/14 06:02:53;;;;;;;32.67;22.53;;;3.40;99.90;;;-141.84;92.58;18716.53;5029778;28;20227;-62
2022/11/14 06:05:22;;;;;;;33.83;21.00;;;3.50;99.90;;;-141.84;92.64;18722.63;5030230;28;20243;-63
2022/11/14 06:07:56;;;;;;;33.70;21.47;;;3.60;99.90;;;-141.84;92.57;18765.28;5030607;28;20209;-62
2022/11/14 06:10:25;;;;;;;30.47;20.73;;;3.60;99.90;;;-141.84;92.55;18690.09;5029762;28;20694;-62
2022/11/14 06:12:53;;;;;;;29.43;21.23;;;3.70;99.90;;;-141.84;92.26;18728.72;5029538;28;20231;-59
2022/11/14 06:15:21;;;;;;;31.40;21.83;;;3.50;99.90;;;-141.84;91.70;18753.09;5030040;28;20236;-62
2022/11/14 06:17:53;;;;;;;28.57;20.77;;;3.50;99.90;;;-141.84;91.61;18730.75;5030001;28;20232;-61
2022/11/14 06:20:22;;;;;;;32.23;21.23;;;3.40;99.90;;;-141.84;91.30;18763.25;5032804;28;20297;-61
2022/11/14 06:22:53;;;;;;;31.67;21.70;;;3.40;99.90;;;-141.84;90.70;18700.25;5050498;28;20226;-60
2022/11/14 06:25:21;;;;;;;31.00;21.67;;;3.40;99.90;;;-141.84;90.14;18724.66;5030467;28;20237;-62
2022/11/14 06:27:49;;;;;;;30.57;21.03;;;3.40;99.90;;;-141.84;88.95;18785.59;5029672;28;20234;-60
2022/11/14 06:30:18;;;;;;;23.97;19.60;;;3.40;99.90;;;-141.84;87.77;18751.06;5029918;28;20287;-61
2022/11/14 06:32:46;;;;;;;28.47;19.87;;;3.40;99.90;;;-141.84;87.60;18744.97;5033268;28;20234;-60
2022/11/14 06:35:16;;;;;;;27.07;19.63;;;3.30;99.90;;;-141.84;87.38;18789.66;5032709;28;20670;-62
2022/11/14 06:37:44;;;;;;;27.37;19.83;;;3.20;99.90;;;-141.84;87.21;18724.66;5034330;28;20198;-61
2022/11/14 06:40:12;;;;;;;26.30;18.07;;;3.30;99.90;;;-141.84;87.19;18749.03;5013782;28;20235;-60
2022/11/14 06:42:40;;;;;;;26.93;19.77;;;3.20;99.90;;;-141.84;87.28;18765.28;5013562;28;20455;-61
2022/11/14 06:45:10;;;;;;;24.47;18.70;;;3.20;99.90;;;-141.84;86.96;18761.22;5013445;28;20225;-62
2022/11/14 06:47:38;;;;;;;27.13;19.70;;;3.20;99.90;;;-141.84;86.23;18759.19;5013930;28;20293;-63
2022/11/14 06:50:08;;;;;;;25.43;18.77;;;3.30;99.90;;;-141.84;86.74;18753.09;5013577;28;20206;-62
2022/11/14 06:52:37;;;;;;;23.90;18.23;;;3.10;99.90;;;-141.84;87.03;18712.47;5014093;28;20284;-62
2022/11/14 06:55:06;;;;;;;24.93;18.47;;;3.10;99.90;;;-141.84;87.56;18744.97;5013193;28;20239;-60
2022/11/14 06:57:35;;;;;;;23.30;18.07;;;3.00;99.90;;;-141.84;87.83;18704.31;5013200;28;20252;-61
2022/11/14 07:00:04;;;;;;;28.53;19.00;;;3.00;99.90;;;-141.84;87.72;18742.94;5013188;28;20275;-61
2022/11/14 07:02:32;;;;;;;26.03;18.57;;;3.10;99.90;;;-141.84;87.75;18716.53;5031911;28;20237;-60
2022/11/14 07:05:00;;;;;;;25.13;18.47;;;3.10;99.90;;;-141.84;87.91;18757.16;5033421;28;20204;-62
2022/11/14 07:07:29;;;;;;;25.87;19.80;;;3.20;99.90;;;-141.84;87.75;18734.81;5053246;28;20227;-60
2022/11/14 07:09:58;;;;;;;26.60;19.23;;;3.20;99.90;;;-141.84;86.28;18775.44;5052520;28;20222;-61
2022/11/14 07:12:28;;;;;;;26.57;20.00;;;3.30;99.90;;;-141.84;85.45;18775.44;5032895;28;20245;-59
2022/11/14 07:14:56;;;;;;;24.60;18.63;;;3.30;99.90;;;-141.84;84.76;18789.66;5032739;28;20230;-60
2022/11/14 07:17:24;;;;;;;27.90;18.40;;;3.40;99.90;;;-141.84;83.95;18771.38;5032890;28;20232;-61
2022/11/14 07:19:58;;;;;;;25.07;18.13;;;3.40;99.90;;;-141.84;83.79;18769.34;5052510;28;20265;-60
2022/11/14 07:22:26;;;;;;;27.00;18.87;;;3.50;99.90;;;-141.84;83.81;18820.16;5052443;28;20250;-60
2022/11/14 07:24:54;;;;;;;23.40;17.33;;;3.50;99.90;;;-141.84;84.48;18755.13;5052175;28;20227;-60
2022/11/14 07:27:24;;;;;;;26.10;18.73;;;3.60;99.90;;;-141.84;84.78;18771.38;5052703;28;20232;-59
2022/11/14 07:29:52;;;;;;;26.70;19.57;;;3.60;99.90;;;-141.84;84.83;18797.78;5052201;28;20438;-60
2022/11/14 07:32:20;;;;;;;25.70;20.03;;;3.70;99.90;;;-141.84;84.92;18763.25;5052516;28;20199;-61
2022/11/14 07:34:48;;;;;;;26.53;19.23;;;3.70;99.90;;;-141.84;85.31;18795.75;5052862;28;20207;-61
2022/11/14 07:37:16;;;;;;;27.07;20.13;;;3.90;99.90;;;-141.84;85.93;18779.50;5045197;28;20229;-60
2022/11/14 07:39:45;;;;;;;31.07;21.73;;;4.00;99.90;;;-141.84;86.25;18826.25;5047474;28;20222;-61
2022/11/14 07:42:13;;;;;;;27.33;19.97;;;4.20;99.90;;;-141.84;86.85;18809.97;5051574;28;20232;-60
2022/11/14 07:44:42;;;;;;;28.30;20.73;;;4.40;99.90;;;-141.84;87.53;18797.78;5052210;28;20224;-60
2022/11/14 07:47:11;;;;;;;32.53;21.30;;;4.60;99.90;;;-141.84;87.60;18797.78;5052493;28;20648;-61
2022/11/14 07:49:39;;;;;;;30.27;20.87;;;4.70;99.90;;;-141.84;88.20;18814.03;5051536;28;20205;-61
2022/11/14 07:52:07;;;;;;;36.50;23.00;;;4.90;99.90;;;-141.84;88.31;18836.41;5051133;28;20222;-62
2022/11/14 07:54:35;;;;;;;31.50;21.27;;;5.10;99.90;;;-141.84;88.24;18848.59;5051322;28;20821;-62
2022/11/14 07:57:03;;;;;;;33.03;22.23;;;5.50;99.90;;;-141.84;87.53;18848.59;5052103;28;20224;-62
2022/11/14 07:59:31;;;;;;;28.43;21.00;;;5.40;99.90;;;-141.84;87.46;18858.75;5051694;28;20600;-61
2022/11/14 08:02:01;;;;;;;32.07;21.07;;;5.50;99.90;;;-141.84;87.72;18860.78;5052444;28;20286;-61
2022/11/14 08:04:29;;;;;;;37.77;23.37;;;5.60;99.90;;;-141.84;87.04;18903.44;5051566;28;20217;-61
2022/11/14 08:06:57;;;;;;;30.80;22.67;;;5.90;99.90;;;-141.84;87.18;18923.78;5051959;28;20715;-60
2022/11/14 08:09:25;;;;;;;29.53;22.30;;;6.30;99.90;;;-141.84;86.24;18927.84;5051634;28;20229;-60
2022/11/14 08:11:53;;;;;;;29.40;21.47;;;6.60;99.90;;;-141.84;85.48;18948.16;5051231;28;20729;-61
2022/11/14 08:14:22;;;;;;;27.77;19.83;;;6.70;99.90;;;-141.84;84.25;18948.16;5051737;28;20237;-60
2022/11/14 08:16:50;;;;;;;27.70;21.00;;;6.80;99.90;;;-141.84;83.77;18944.09;5052268;28;20202;-61
2022/11/14 08:19:20;;;;;;;26.87;20.17;;;7.00;99.90;;;-141.84;82.27;18962.38;5051304;28;20246;-59
2022/11/14 08:21:48;;;;;;;23.53;19.07;;;7.00;99.90;;;-141.84;83.77;18972.53;5051439;28;20613;-60
2022/11/14 08:24:16;;;;;;;26.50;19.97;;;7.20;99.90;;;-141.84;84.19;18976.59;5051600;28;20232;-61
2022/11/14 08:26:44;;;;;;;26.37;19.07;;;7.40;99.90;;;-141.84;83.50;18988.78;5051102;28;20225;-61
2022/11/14 08:29:12;;;;;;;24.83;18.77;;;7.50;99.90;;;-141.84;82.29;19009.09;5051145;28;20695;-61
2022/11/14 08:31:41;;;;;;;27.07;19.27;;;7.60;99.90;;;-141.84;82.04;19021.31;5051378;28;20205;-62
2022/11/14 08:34:09;;;;;;;22.33;17.60;;;7.60;99.90;;;-141.84;81.41;19011.13;5038930;28;20263;-61
2022/11/14 08:36:39;;;;;;;24.53;19.47;;;7.70;99.90;;;-141.84;80.89;19059.91;5031348;28;20233;-61
2022/11/14 08:39:07;;;;;;;23.33;18.33;;;7.70;99.90;;;-141.84;80.21;19029.44;5041645;28;20241;-61
2022/11/14 08:41:35;;;;;;;24.83;19.10;;;7.80;99.90;;;-141.84;76.78;19080.22;5050870;28;20228;-61
2022/11/14 08:44:03;;;;;;;23.47;18.67;;;7.90;99.90;;;-141.84;76.88;19098.50;5051081;28;20205;-60
2022/11/14 08:46:31;;;;;;;25.20;18.07;;;7.90;99.90;;;-141.84;75.58;19106.66;5051174;28;20225;-62
2022/11/14 08:48:59;;;;;;;26.00;18.13;;;8.10;99.90;;;-141.84;75.29;19131.03;5050616;28;20225;-62
2022/11/14 08:51:30;;;;;;;24.90;18.57;;;8.20;99.90;;;-141.84;74.99;19131.03;5050869;28;20229;-61
2022/11/14 08:53:59;;;;;;;20.13;16.70;;;8.20;99.90;;;-141.84;75.49;19143.22;5050821;28;20244;-61
2022/11/14 08:56:28;;;;;;;22.13;18.27;;;8.30;99.90;;;-141.84;75.79;19112.75;5050797;28;20225;-61
2022/11/14 08:58:56;;;;;;;23.67;18.70;;;8.40;99.90;;;-141.84;75.33;19153.38;5051090;28;20201;-61
2022/11/14 09:01:24;;;;;;;23.13;18.07;;;8.40;99.90;;;-141.84;73.92;19185.88;5050610;28;20229;-61
2022/11/14 09:03:52;;;;;;;22.20;17.57;;;8.50;99.90;;;-141.84;73.74;19181.81;5050635;28;20727;-62
2022/11/14 09:06:27;;;;;;;20.57;16.63;;;8.60;99.90;;;-141.84;72.78;19202.16;5050763;28;20238;-61
2022/11/14 09:08:55;;;;;;;23.63;16.87;;;8.80;99.90;;;-141.84;72.19;19212.31;5050575;28;20236;-60
2022/11/14 09:11:24;;;;;;;19.43;16.57;;;8.90;99.90;;;-141.84;71.01;19240.75;5050458;28;20228;-62
2022/11/14 09:13:53;;;;;;;20.03;16.23;;;8.90;99.90;;;-141.84;70.43;19244.81;5051043;28;20205;-61
2022/11/14 09:16:21;;;;;;;19.43;15.80;;;9.00;99.90;;;-141.84;69.93;19281.41;5050475;28;20232;-61
2022/11/14 09:18:49;;;;;;;19.57;16.13;;;9.10;99.90;;;-141.84;67.73;19344.41;5050345;28;20271;-60
2022/11/14 09:21:17;;;;;;;22.37;16.80;;;9.40;99.90;;;-141.84;67.84;19332.19;5050531;28;20230;-61
2022/11/14 09:23:47;;;;;;;21.70;16.37;;;9.50;99.90;;;-141.84;68.08;19320.00;5050558;28;20582;-61
2022/11/14 09:26:17;;;;;;;22.63;17.50;;;9.60;99.90;;;-141.84;67.88;19366.75;5050151;28;20201;-60
2022/11/14 09:28:46;;;;;;;19.10;14.20;;;9.60;99.90;;;-141.84;68.12;19358.63;5050939;28;20201;-60
2022/11/14 09:31:14;;;;;;;19.33;16.23;;;9.60;99.90;;;-141.84;68.20;19374.88;5031274;28;20226;-61
2022/11/14 09:33:42;;;;;;;18.93;15.77;;;9.60;99.90;;;-141.84;68.52;19362.69;5030548;28;20584;-61
2022/11/14 09:36:14;;;;;;;21.70;17.07;;;9.60;99.90;;;-141.84;67.61;19362.69;5030774;28;20229;-61
2022/11/14 09:38:43;;;;;;;19.23;16.13;;;9.60;99.90;;;-141.84;68.06;19383.00;5037671;28;20228;-60
2022/11/14 09:41:25;;;;;;;17.60;14.97;;;9.60;99.90;;;-141.84;68.09;19407.38;5050330;28;20248;-61
2022/11/14 09:44:44;;;;;;;19.13;15.23;;;9.60;99.90;;;-141.84;67.93;19320.00;5050943;28;20189;-61
2022/11/14 09:47:20;;;;;;;21.50;16.13;;;9.70;99.90;;;-141.84;67.43;19350.50;5030313;28;20248;-60
2022/11/14 09:49:53;;;;;;;18.70;15.57;;;9.70;99.90;;;-141.84;67.69;19378.94;5031068;28;20190;-61
2022/11/14 09:52:35;;;;;;;18.33;15.47;;;9.70;99.90;;;-141.84;67.80;19389.09;5030424;28;20229;-61
2022/11/14 09:55:12;;;;;;;20.20;15.67;;;9.80;99.90;;;-141.84;67.51;19399.25;5030061;28;20222;-60
2022/11/14 09:57:43;;;;;;;18.17;14.80;;;9.90;99.90;;;-141.84;66.91;19415.50;5030075;28;20226;-60
2022/11/14 10:00:20;;;;;;;17.33;14.60;;;10.00;99.90;;;-141.84;66.54;19448.03;5030397;28;20280;-62
2022/11/14 10:03:15;;;;;;;19.00;15.37;;;10.00;99.90;;;-141.84;66.91;19419.59;5030320;28;20236;-61
2022/11/14 10:06:04;;;;;;;19.30;16.30;;;10.10;99.90;;;-141.84;66.88;19443.97;5030116;28;20716;-60
2022/11/14 10:08:58;;;;;;;16.83;14.43;;;10.10;99.90;;;-141.84;66.24;19460.22;5040006;28;20221;-61
2022/11/14 10:11:38;;;;;;;19.00;15.07;;;10.20;99.90;;;-141.84;66.20;19427.72;5054019;28;20232;-61